createdAt,value
2019-05-19T00:00:38.787Z,0.00
2019-05-19T00:01:38.782Z,0.00
2019-05-19T00:02:40.846Z,0.00
2019-05-19T00:03:38.829Z,0.00
2019-05-19T00:04:38.748Z,0.00
2019-05-19T00:05:38.772Z,0.00
2019-05-19T00:06:38.799Z,0.00
2019-05-19T00:07:38.723Z,0.00
2019-05-19T00:08:38.710Z,0.00
2019-05-19T00:09:38.756Z,0.00
2019-05-19T00:10:38.685Z,0.00
2019-05-19T00:11:38.670Z,0.00
2019-05-19T00:12:38.659Z,0.00
2019-05-19T00:13:38.649Z,0.00
2019-05-19T00:14:38.690Z,0.00
2019-05-19T00:15:38.642Z,0.00
2019-05-19T00:16:38.627Z,0.00
2019-05-19T00:17:38.599Z,0.00
2019-05-19T00:18:38.598Z,0.00
2019-05-19T00:19:38.586Z,0.00
2019-05-19T00:20:38.661Z,0.00
2019-05-19T00:21:38.601Z,0.00
2019-05-19T00:22:38.555Z,0.00
2019-05-19T00:23:38.539Z,0.00
2019-05-19T00:24:38.531Z,0.00
2019-05-19T00:25:38.522Z,0.00
2019-05-19T00:26:38.511Z,0.00
2019-05-19T00:27:38.623Z,0.00
2019-05-19T00:28:45.471Z,0.00
2019-05-19T00:29:38.476Z,0.00
2019-05-19T00:30:38.468Z,0.00
2019-05-19T00:31:38.462Z,0.00
2019-05-19T00:32:38.446Z,0.00
2019-05-19T00:33:38.454Z,0.00
2019-05-19T00:34:38.432Z,0.00
2019-05-19T00:35:38.431Z,0.00
2019-05-19T00:36:38.397Z,0.00
2019-05-19T00:37:38.410Z,0.00
2019-05-19T00:38:38.384Z,0.00
2019-05-19T00:39:38.370Z,0.00
2019-05-19T00:40:38.407Z,0.00
2019-05-19T00:41:38.346Z,0.00
2019-05-19T00:42:38.354Z,0.00
2019-05-19T00:43:38.389Z,0.00
2019-05-19T00:44:38.332Z,0.00
2019-05-19T00:45:38.317Z,0.00
2019-05-19T00:46:38.289Z,0.00
2019-05-19T00:47:38.288Z,5.62
2019-05-19T00:48:38.289Z,5.62
2019-05-19T00:49:41.486Z,5.62
2019-05-19T00:50:38.251Z,5.62
2019-05-19T00:51:38.287Z,5.62
2019-05-19T00:52:38.235Z,5.62
2019-05-19T00:53:38.226Z,5.62
2019-05-19T00:54:38.228Z,5.62
2019-05-19T00:55:38.198Z,5.62
2019-05-19T00:56:38.191Z,5.62
2019-05-19T00:57:38.240Z,5.62
2019-05-19T00:58:38.168Z,5.62
2019-05-19T00:59:38.197Z,5.62
2019-05-19T01:00:45.125Z,11.25
2019-05-19T01:01:38.133Z,11.25
2019-05-19T01:02:38.122Z,11.25
2019-05-19T01:03:38.123Z,11.25
2019-05-19T01:04:38.108Z,11.25
2019-05-19T01:05:38.112Z,11.25
2019-05-19T01:06:38.105Z,11.25
2019-05-19T01:07:38.069Z,11.25
2019-05-19T01:08:38.071Z,11.25
2019-05-19T01:09:38.053Z,16.88
2019-05-19T01:10:38.061Z,16.88
2019-05-19T01:11:38.100Z,16.88
2019-05-19T01:12:38.024Z,16.88
2019-05-19T01:13:38.008Z,16.88
2019-05-19T01:14:38.056Z,16.88
2019-05-19T01:15:37.989Z,16.88
2019-05-19T01:16:38.022Z,22.50
2019-05-19T01:17:37.974Z,22.50
2019-05-19T01:18:37.954Z,22.50
2019-05-19T01:19:38.005Z,22.50
2019-05-19T01:20:37.933Z,22.50
2019-05-19T01:21:37.919Z,22.50
2019-05-19T01:22:37.942Z,28.12
2019-05-19T01:23:37.899Z,28.12
2019-05-19T01:24:37.902Z,28.12
2019-05-19T01:25:37.956Z,28.12
2019-05-19T01:26:37.869Z,28.12
2019-05-19T01:27:37.870Z,33.75
2019-05-19T01:28:37.850Z,33.75
2019-05-19T01:29:37.843Z,33.75
2019-05-19T01:30:37.830Z,33.75
2019-05-19T01:31:37.886Z,39.38
2019-05-19T01:32:44.779Z,39.38
2019-05-19T01:33:37.797Z,39.38
2019-05-19T01:34:37.783Z,39.38
2019-05-19T01:35:37.773Z,39.38
2019-05-19T01:36:37.760Z,45.00
2019-05-19T01:37:37.776Z,45.00
2019-05-19T01:38:37.753Z,45.00
2019-05-19T01:39:37.734Z,45.00
2019-05-19T01:40:37.718Z,45.00
2019-05-19T01:41:37.715Z,50.62
2019-05-19T01:42:37.867Z,50.62
2019-05-19T01:43:37.741Z,50.62
2019-05-19T01:44:37.698Z,50.62
2019-05-19T01:45:37.670Z,56.25
2019-05-19T01:46:37.722Z,56.25
2019-05-19T01:47:37.651Z,56.25
2019-05-19T01:48:37.701Z,56.25
2019-05-19T01:49:37.678Z,61.88
2019-05-19T01:50:37.618Z,61.88
2019-05-19T01:51:37.646Z,61.88
2019-05-19T01:52:37.590Z,61.88
2019-05-19T01:53:37.584Z,61.88
2019-05-19T01:54:37.571Z,67.50
2019-05-19T01:55:37.588Z,67.50
2019-05-19T01:56:37.558Z,67.50
2019-05-19T01:57:37.555Z,67.50
2019-05-19T01:58:37.578Z,73.12
2019-05-19T01:59:37.522Z,73.12
2019-05-19T02:00:37.517Z,73.12
2019-05-19T02:01:37.503Z,73.12
2019-05-19T02:02:37.489Z,73.12
2019-05-19T02:03:37.479Z,78.75
2019-05-19T02:04:44.444Z,78.75
2019-05-19T02:05:37.460Z,78.75
2019-05-19T02:06:37.446Z,78.75
2019-05-19T02:07:37.443Z,84.38
2019-05-19T02:08:37.427Z,84.38
2019-05-19T02:09:37.421Z,84.38
2019-05-19T02:10:37.443Z,84.38
2019-05-19T02:11:37.387Z,84.38
2019-05-19T02:12:37.384Z,90.00
2019-05-19T02:13:37.369Z,90.00
2019-05-19T02:14:37.390Z,90.00
2019-05-19T02:15:37.343Z,90.00
2019-05-19T02:16:37.349Z,95.62
2019-05-19T02:17:37.341Z,95.62
2019-05-19T02:18:37.318Z,95.62
2019-05-19T02:19:37.299Z,95.62
2019-05-19T02:20:37.302Z,95.62
2019-05-19T02:21:37.287Z,101.25
2019-05-19T02:22:37.274Z,101.25
2019-05-19T02:23:37.271Z,101.25
2019-05-19T02:24:37.269Z,101.25
2019-05-19T02:25:37.251Z,106.88
2019-05-19T02:26:37.234Z,106.88
2019-05-19T02:27:37.255Z,106.88
2019-05-19T02:28:37.214Z,106.88
2019-05-19T02:29:37.199Z,106.88
2019-05-19T02:30:37.195Z,112.50
2019-05-19T02:31:37.183Z,112.50
2019-05-19T02:32:37.180Z,112.50
2019-05-19T02:33:37.169Z,112.50
2019-05-19T02:34:37.204Z,118.12
2019-05-19T02:35:37.137Z,118.12
2019-05-19T02:36:44.955Z,118.12
2019-05-19T02:37:37.122Z,118.12
2019-05-19T02:38:37.118Z,123.75
2019-05-19T02:39:37.088Z,123.75
2019-05-19T02:40:37.076Z,123.75
2019-05-19T02:41:37.074Z,123.75
2019-05-19T02:42:37.151Z,129.38
2019-05-19T02:43:37.049Z,129.38
2019-05-19T02:44:37.042Z,129.38
2019-05-19T02:45:37.075Z,129.38
2019-05-19T02:46:37.012Z,135.00
2019-05-19T02:47:37.015Z,135.00
2019-05-19T02:48:37.039Z,135.00
2019-05-19T02:49:36.995Z,135.00
2019-05-19T02:50:51.018Z,140.62
2019-05-19T02:51:37.969Z,140.62
2019-05-19T02:52:37.026Z,140.62
2019-05-19T02:53:36.945Z,140.62
2019-05-19T02:54:36.941Z,146.25
2019-05-19T02:55:36.924Z,146.25
2019-05-19T02:56:36.912Z,146.25
2019-05-19T02:57:36.899Z,146.25
2019-05-19T02:58:36.917Z,151.88
2019-05-19T02:59:36.967Z,151.88
2019-05-19T03:00:36.873Z,151.88
2019-05-19T03:01:36.857Z,151.88
2019-05-19T03:02:36.853Z,151.88
2019-05-19T03:03:36.839Z,151.88
2019-05-19T03:04:36.837Z,157.50
2019-05-19T03:05:36.827Z,157.50
2019-05-19T03:06:36.846Z,157.50
2019-05-19T03:07:36.865Z,157.50
2019-05-19T03:08:43.765Z,157.50
2019-05-19T03:09:36.839Z,163.12
2019-05-19T03:10:36.761Z,163.12
2019-05-19T03:11:36.746Z,163.12
2019-05-19T03:12:36.741Z,163.12
2019-05-19T03:13:36.729Z,163.12
2019-05-19T03:14:36.724Z,168.75
2019-05-19T03:15:36.774Z,168.75
2019-05-19T03:16:36.698Z,168.75
2019-05-19T03:17:36.687Z,168.75
2019-05-19T03:18:36.755Z,168.75
2019-05-19T03:19:36.689Z,168.75
2019-05-19T03:20:36.660Z,168.75
2019-05-19T03:21:36.647Z,168.75
2019-05-19T03:22:36.633Z,168.75
2019-05-19T03:23:36.646Z,168.75
2019-05-19T03:24:36.652Z,168.75
2019-05-19T03:25:36.660Z,174.38
2019-05-19T03:26:36.597Z,174.38
2019-05-19T03:27:36.588Z,174.38
2019-05-19T03:28:36.578Z,174.38
2019-05-19T03:29:36.566Z,174.38
2019-05-19T03:30:36.622Z,174.38
2019-05-19T03:31:36.552Z,174.38
2019-05-19T03:32:36.532Z,180.00
2019-05-19T03:33:36.535Z,180.00
2019-05-19T03:34:36.506Z,180.00
2019-05-19T03:35:36.506Z,180.00
2019-05-19T03:36:36.505Z,180.00
2019-05-19T03:38:36.475Z,180.00
2019-05-19T03:39:36.449Z,180.00
2019-05-19T03:40:43.425Z,185.62
2019-05-19T03:41:36.444Z,185.62
2019-05-19T03:42:36.416Z,185.62
2019-05-19T03:43:36.407Z,185.62
2019-05-19T03:44:36.400Z,185.62
2019-05-19T03:45:36.392Z,185.62
2019-05-19T03:46:36.391Z,191.25
2019-05-19T03:47:36.449Z,191.25
2019-05-19T03:48:36.347Z,191.25
2019-05-19T03:49:36.347Z,191.25
2019-05-19T03:50:36.377Z,191.25
2019-05-19T03:51:36.332Z,191.25
2019-05-19T03:52:36.320Z,191.25
2019-05-19T03:53:36.324Z,191.25
2019-05-19T03:54:36.290Z,196.88
2019-05-19T03:55:36.373Z,196.88
2019-05-19T03:56:36.269Z,196.88
2019-05-19T03:57:36.258Z,196.88
2019-05-19T03:58:36.258Z,196.88
2019-05-19T03:59:36.260Z,196.88
2019-05-19T04:00:36.228Z,196.88
2019-05-19T04:01:36.280Z,196.88
2019-05-19T04:02:36.206Z,196.88
2019-05-19T04:03:36.200Z,202.50
2019-05-19T04:04:36.201Z,202.50
2019-05-19T04:05:36.177Z,202.50
2019-05-19T04:06:36.162Z,202.50
2019-05-19T04:07:36.306Z,202.50
2019-05-19T04:08:36.138Z,202.50
2019-05-19T04:09:36.132Z,202.50
2019-05-19T04:10:36.142Z,202.50
2019-05-19T04:11:36.110Z,202.50
2019-05-19T04:12:44.059Z,202.50
2019-05-19T04:13:36.086Z,202.50
2019-05-19T04:14:36.076Z,202.50
2019-05-19T04:15:36.079Z,208.12
2019-05-19T04:16:36.110Z,208.12
2019-05-19T04:17:36.049Z,208.12
2019-05-19T04:18:36.032Z,208.12
2019-05-19T04:19:36.024Z,208.12
2019-05-19T04:20:36.083Z,208.12
2019-05-19T04:21:48.411Z,208.12
2019-05-19T04:22:36.993Z,208.12
2019-05-19T04:23:35.975Z,208.12
2019-05-19T04:24:35.993Z,208.12
2019-05-19T04:25:35.993Z,208.12
2019-05-19T04:26:35.949Z,208.12
2019-05-19T04:27:35.942Z,213.75
2019-05-19T04:28:35.924Z,213.75
2019-05-19T04:29:39.199Z,213.75
2019-05-19T04:30:35.899Z,213.75
2019-05-19T04:31:35.907Z,213.75
2019-05-19T04:32:35.885Z,213.75
2019-05-19T04:33:35.870Z,213.75
2019-05-19T04:34:35.871Z,213.75
2019-05-19T04:35:35.891Z,219.38
2019-05-19T04:36:35.848Z,219.38
2019-05-19T04:37:35.828Z,219.38
2019-05-19T04:38:35.824Z,219.38
2019-05-19T04:39:35.817Z,219.38
2019-05-19T04:40:36.318Z,219.38
2019-05-19T04:41:49.096Z,225.00
2019-05-19T04:42:35.771Z,225.00
2019-05-19T04:43:35.758Z,225.00
2019-05-19T04:44:42.732Z,225.00
2019-05-19T04:45:35.739Z,225.00
2019-05-19T04:46:35.742Z,225.00
2019-05-19T04:47:35.761Z,225.00
2019-05-19T04:48:35.712Z,225.00
2019-05-19T04:49:35.707Z,225.00
2019-05-19T04:50:35.700Z,225.00
2019-05-19T04:51:35.708Z,225.00
2019-05-19T04:52:35.673Z,225.00
2019-05-19T04:53:35.741Z,225.00
2019-05-19T04:54:35.726Z,225.00
2019-05-19T04:55:35.638Z,225.00
2019-05-19T04:56:35.624Z,225.00
2019-05-19T04:57:35.632Z,225.00
2019-05-19T04:58:35.630Z,225.00
2019-05-19T04:59:35.701Z,225.00
2019-05-19T05:00:35.581Z,225.00
2019-05-19T05:01:35.566Z,225.00
2019-05-19T05:02:35.640Z,219.38
2019-05-19T05:03:35.551Z,219.38
2019-05-19T05:04:35.544Z,225.00
2019-05-19T05:05:35.574Z,225.00
2019-05-19T05:06:35.522Z,225.00
2019-05-19T05:07:35.508Z,225.00
2019-05-19T05:08:35.504Z,230.62
2019-05-19T05:09:35.494Z,230.62
2019-05-19T05:10:35.474Z,230.62
2019-05-19T05:11:35.494Z,230.62
2019-05-19T05:12:35.526Z,230.62
2019-05-19T05:13:35.441Z,230.62
2019-05-19T05:14:35.467Z,230.62
2019-05-19T05:15:35.417Z,230.62
2019-05-19T05:16:42.930Z,230.62
2019-05-19T05:17:35.394Z,230.62
2019-05-19T05:18:35.385Z,230.62
2019-05-19T05:19:35.378Z,236.25
2019-05-19T05:20:35.383Z,230.62
2019-05-19T05:21:35.361Z,230.62
2019-05-19T05:22:35.476Z,230.62
2019-05-19T05:23:35.335Z,236.25
2019-05-19T05:24:35.324Z,236.25
2019-05-19T05:25:35.342Z,236.25
2019-05-19T05:26:35.305Z,236.25
2019-05-19T05:27:35.295Z,236.25
2019-05-19T05:28:35.281Z,236.25
2019-05-19T05:29:35.271Z,236.25
2019-05-19T05:30:35.323Z,241.88
2019-05-19T05:31:35.256Z,241.88
2019-05-19T05:32:35.243Z,247.50
2019-05-19T05:33:35.229Z,241.88
2019-05-19T05:34:35.218Z,241.88
2019-05-19T05:35:35.208Z,241.88
2019-05-19T05:36:35.264Z,241.88
2019-05-19T05:37:35.186Z,241.88
2019-05-19T05:38:35.171Z,241.88
2019-05-19T05:39:35.164Z,241.88
2019-05-19T05:40:35.146Z,247.50
2019-05-19T05:41:35.148Z,247.50
2019-05-19T05:42:35.225Z,241.88
2019-05-19T05:43:35.119Z,241.88
2019-05-19T05:44:35.111Z,241.88
2019-05-19T05:45:35.105Z,241.88
2019-05-19T05:46:35.083Z,241.88
2019-05-19T05:47:35.080Z,241.88
2019-05-19T05:48:42.643Z,241.88
2019-05-19T05:49:35.058Z,241.88
2019-05-19T05:50:35.046Z,241.88
2019-05-19T05:51:35.041Z,247.50
2019-05-19T05:52:38.617Z,247.50
2019-05-19T05:53:35.006Z,247.50
2019-05-19T05:54:35.007Z,253.12
2019-05-19T05:55:35.031Z,253.12
2019-05-19T05:56:34.983Z,253.12
2019-05-19T05:57:34.977Z,253.12
2019-05-19T05:58:34.994Z,253.12
2019-05-19T05:59:34.946Z,253.12
2019-05-19T06:00:34.932Z,258.75
2019-05-19T06:01:34.940Z,258.75
2019-05-19T06:02:34.965Z,258.75
2019-05-19T06:03:34.948Z,258.75
2019-05-19T06:04:34.949Z,258.75
2019-05-19T06:05:34.887Z,264.38
2019-05-19T06:06:34.873Z,258.75
2019-05-19T06:07:34.862Z,253.12
2019-05-19T06:08:34.890Z,258.75
2019-05-19T06:09:34.840Z,258.75
2019-05-19T06:10:34.841Z,258.75
2019-05-19T06:11:34.822Z,258.75
2019-05-19T06:12:34.813Z,264.38
2019-05-19T06:13:34.795Z,264.38
2019-05-19T06:14:34.799Z,264.38
2019-05-19T06:15:34.782Z,264.38
2019-05-19T06:16:34.797Z,258.75
2019-05-19T06:17:34.835Z,258.75
2019-05-19T06:18:34.798Z,258.75
2019-05-19T06:19:34.734Z,253.12
2019-05-19T06:20:42.167Z,258.75
2019-05-19T06:21:34.712Z,258.75
2019-05-19T06:22:34.792Z,264.38
2019-05-19T06:23:34.692Z,270.00
2019-05-19T06:24:34.681Z,264.38
2019-05-19T06:25:34.751Z,270.00
2019-05-19T06:26:34.669Z,270.00
2019-05-19T06:27:34.694Z,264.38
2019-05-19T06:28:34.639Z,264.38
2019-05-19T06:29:34.639Z,264.38
2019-05-19T06:30:34.615Z,270.00
2019-05-19T06:31:34.629Z,270.00
2019-05-19T06:32:34.602Z,270.00
2019-05-19T06:33:34.585Z,270.00
2019-05-19T06:34:34.584Z,264.38
2019-05-19T06:35:34.564Z,264.38
2019-05-19T06:36:34.586Z,270.00
2019-05-19T06:37:34.547Z,270.00
2019-05-19T06:38:34.591Z,270.00
2019-05-19T06:39:34.524Z,264.38
2019-05-19T06:40:34.506Z,264.38
2019-05-19T06:41:34.500Z,264.38
2019-05-19T06:42:34.518Z,270.00
2019-05-19T06:43:34.478Z,275.62
2019-05-19T06:44:34.468Z,270.00
2019-05-19T06:45:34.527Z,275.62
2019-05-19T06:46:34.447Z,275.62
2019-05-19T06:47:34.451Z,281.25
2019-05-19T06:48:34.433Z,275.62
2019-05-19T06:49:34.419Z,281.25
2019-05-19T06:50:34.403Z,275.62
2019-05-19T06:51:34.394Z,281.25
2019-05-19T06:52:41.390Z,281.25
2019-05-19T06:53:34.381Z,281.25
2019-05-19T06:54:34.355Z,281.25
2019-05-19T06:55:34.382Z,286.88
2019-05-19T06:56:34.339Z,286.88
2019-05-19T06:57:34.336Z,298.12
2019-05-19T06:58:34.333Z,292.50
2019-05-19T06:59:34.321Z,292.50
2019-05-19T07:00:34.359Z,292.50
2019-05-19T07:01:34.290Z,292.50
2019-05-19T07:02:35.197Z,292.50
2019-05-19T07:03:34.268Z,298.12
2019-05-19T07:04:34.298Z,298.12
2019-05-19T07:05:34.244Z,298.12
2019-05-19T07:06:34.409Z,303.75
2019-05-19T07:07:34.259Z,303.75
2019-05-19T07:08:34.209Z,303.75
2019-05-19T07:09:34.265Z,303.75
2019-05-19T07:10:34.229Z,303.75
2019-05-19T07:11:34.187Z,303.75
2019-05-19T07:12:34.168Z,303.75
2019-05-19T07:13:34.190Z,303.75
2019-05-19T07:14:34.146Z,309.38
2019-05-19T07:15:34.138Z,303.75
2019-05-19T07:16:34.139Z,303.75
2019-05-19T07:17:34.111Z,303.75
2019-05-19T07:18:34.102Z,303.75
2019-05-19T07:19:34.099Z,298.12
2019-05-19T07:20:34.079Z,303.75
2019-05-19T07:21:34.120Z,303.75
2019-05-19T07:22:37.434Z,298.12
2019-05-19T07:23:34.045Z,286.88
2019-05-19T07:24:41.021Z,286.88
2019-05-19T07:25:34.027Z,292.50
2019-05-19T07:26:34.021Z,292.50
2019-05-19T07:27:34.052Z,286.88
2019-05-19T07:28:33.997Z,286.88
2019-05-19T07:29:33.994Z,298.12
2019-05-19T07:30:33.982Z,298.12
2019-05-19T07:31:33.978Z,309.38
2019-05-19T07:32:33.954Z,315.00
2019-05-19T07:33:33.986Z,315.00
2019-05-19T07:34:33.973Z,326.25
2019-05-19T07:35:33.924Z,326.25
2019-05-19T07:36:33.910Z,320.62
2019-05-19T07:37:33.901Z,320.62
2019-05-19T07:38:33.884Z,326.25
2019-05-19T07:39:33.982Z,320.62
2019-05-19T07:40:33.866Z,320.62
2019-05-19T07:41:33.856Z,326.25
2019-05-19T07:42:33.867Z,326.25
2019-05-19T07:43:33.842Z,326.25
2019-05-19T07:44:33.830Z,331.88
2019-05-19T07:45:33.866Z,326.25
2019-05-19T07:46:33.808Z,326.25
2019-05-19T07:47:33.789Z,326.25
2019-05-19T07:48:33.797Z,326.25
2019-05-19T07:49:33.804Z,320.62
2019-05-19T07:50:37.517Z,331.88
2019-05-19T07:51:33.785Z,326.25
2019-05-19T07:52:33.747Z,326.25
2019-05-19T07:53:42.647Z,331.88
2019-05-19T07:54:34.723Z,337.50
2019-05-19T07:55:33.711Z,343.12
2019-05-19T07:56:41.183Z,343.12
2019-05-19T07:57:33.685Z,331.88
2019-05-19T07:58:33.679Z,337.50
2019-05-19T07:59:33.712Z,337.50
2019-05-19T08:00:33.650Z,337.50
2019-05-19T08:01:33.647Z,337.50
2019-05-19T08:02:33.687Z,337.50
2019-05-19T08:03:33.645Z,343.12
2019-05-19T08:04:33.618Z,337.50
2019-05-19T08:05:33.629Z,343.12
2019-05-19T08:06:33.595Z,348.75
2019-05-19T08:07:33.576Z,348.75
2019-05-19T08:08:33.592Z,354.38
2019-05-19T08:09:33.557Z,360.00
2019-05-19T08:10:33.562Z,354.38
2019-05-19T08:11:33.536Z,360.00
2019-05-19T08:12:33.526Z,360.00
2019-05-19T08:13:33.512Z,354.38
2019-05-19T08:14:33.506Z,365.62
2019-05-19T08:15:33.524Z,365.62
2019-05-19T08:16:33.485Z,371.25
2019-05-19T08:17:33.471Z,371.25
2019-05-19T08:18:33.459Z,371.25
2019-05-19T08:19:33.443Z,371.25
2019-05-19T08:20:33.434Z,365.62
2019-05-19T08:21:33.451Z,360.00
2019-05-19T08:22:33.411Z,365.62
2019-05-19T08:23:33.405Z,348.75
2019-05-19T08:24:33.394Z,354.38
2019-05-19T08:25:33.384Z,354.38
2019-05-19T08:26:33.410Z,371.25
2019-05-19T08:27:33.368Z,371.25
2019-05-19T08:28:40.337Z,376.88
2019-05-19T08:29:33.340Z,376.88
2019-05-19T08:30:33.334Z,376.88
2019-05-19T08:31:33.328Z,376.88
2019-05-19T08:32:33.351Z,371.25
2019-05-19T08:33:33.315Z,371.25
2019-05-19T08:34:33.296Z,371.25
2019-05-19T08:35:33.481Z,371.25
2019-05-19T08:36:33.272Z,371.25
2019-05-19T08:37:33.279Z,371.25
2019-05-19T08:38:33.303Z,376.88
2019-05-19T08:39:33.298Z,382.50
2019-05-19T08:40:33.235Z,382.50
2019-05-19T08:41:33.222Z,376.88
2019-05-19T08:42:33.208Z,371.25
2019-05-19T08:43:33.249Z,371.25
2019-05-19T08:44:33.223Z,371.25
2019-05-19T08:45:33.209Z,371.25
2019-05-19T08:46:33.161Z,365.62
2019-05-19T08:47:33.174Z,365.62
2019-05-19T08:48:33.152Z,371.25
2019-05-19T08:49:33.166Z,365.62
2019-05-19T08:50:33.210Z,360.00
2019-05-19T08:51:33.124Z,360.00
2019-05-19T08:52:33.141Z,365.62
2019-05-19T08:53:33.094Z,348.75
2019-05-19T08:54:33.103Z,348.75
2019-05-19T08:55:33.074Z,360.00
2019-05-19T08:56:33.071Z,354.38
2019-05-19T08:57:33.058Z,354.38
2019-05-19T08:58:33.068Z,354.38
2019-05-19T08:59:33.081Z,354.38
2019-05-19T09:00:40.006Z,360.00
2019-05-19T09:01:33.007Z,365.62
2019-05-19T09:02:33.022Z,365.62
2019-05-19T09:03:32.994Z,371.25
2019-05-19T09:04:32.980Z,382.50
2019-05-19T09:05:33.016Z,388.12
2019-05-19T09:06:32.958Z,393.75
2019-05-19T09:07:32.967Z,399.38
2019-05-19T09:08:32.937Z,405.00
2019-05-19T09:09:32.940Z,416.25
2019-05-19T09:10:32.918Z,427.50
2019-05-19T09:11:32.916Z,433.12
2019-05-19T09:12:32.929Z,438.75
2019-05-19T09:13:32.897Z,444.38
2019-05-19T09:14:32.879Z,450.00
2019-05-19T09:15:32.872Z,450.00
2019-05-19T09:16:32.913Z,444.38
2019-05-19T09:17:32.849Z,450.00
2019-05-19T09:18:32.841Z,444.38
2019-05-19T09:19:32.823Z,433.12
2019-05-19T09:20:32.822Z,427.50
2019-05-19T09:21:32.824Z,450.00
2019-05-19T09:22:32.807Z,461.25
2019-05-19T09:23:32.792Z,461.25
2019-05-19T09:24:32.774Z,461.25
2019-05-19T09:25:32.769Z,461.25
2019-05-19T09:26:32.755Z,466.88
2019-05-19T09:27:32.752Z,461.25
2019-05-19T09:28:32.737Z,472.50
2019-05-19T09:29:32.724Z,466.88
2019-05-19T09:30:32.715Z,466.88
2019-05-19T09:31:32.710Z,466.88
2019-05-19T09:32:42.317Z,466.88
2019-05-19T09:33:32.685Z,472.50
2019-05-19T09:34:32.674Z,483.75
2019-05-19T09:35:32.662Z,478.12
2019-05-19T09:36:32.655Z,455.62
2019-05-19T09:37:32.649Z,450.00
2019-05-19T09:38:32.658Z,450.00
2019-05-19T09:39:32.631Z,427.50
2019-05-19T09:40:32.611Z,427.50
2019-05-19T09:41:32.629Z,433.12
2019-05-19T09:42:32.587Z,427.50
2019-05-19T09:43:32.600Z,427.50
2019-05-19T09:44:32.573Z,433.12
2019-05-19T09:45:32.562Z,444.38
2019-05-19T09:46:32.543Z,444.38
2019-05-19T09:47:32.677Z,455.62
2019-05-19T09:48:32.573Z,461.25
2019-05-19T09:49:32.525Z,455.62
2019-05-19T09:50:32.504Z,461.25
2019-05-19T09:51:32.498Z,461.25
2019-05-19T09:52:32.480Z,472.50
2019-05-19T09:53:32.472Z,466.88
2019-05-19T09:54:44.091Z,472.50
2019-05-19T09:55:33.444Z,478.12
2019-05-19T09:56:32.555Z,489.38
2019-05-19T09:57:32.459Z,506.25
2019-05-19T09:58:32.418Z,517.50
2019-05-19T09:59:32.406Z,528.75
2019-05-19T10:00:32.416Z,517.50
2019-05-19T10:01:32.381Z,511.88
2019-05-19T10:02:32.379Z,517.50
2019-05-19T10:03:32.359Z,511.88
2019-05-19T10:04:39.356Z,523.12
2019-05-19T10:05:32.388Z,517.50
2019-05-19T10:06:32.326Z,500.62
2019-05-19T10:07:32.318Z,506.25
2019-05-19T10:08:32.313Z,511.88
2019-05-19T10:09:32.301Z,506.25
2019-05-19T10:10:32.285Z,511.88
2019-05-19T10:11:32.307Z,489.38
2019-05-19T10:12:32.291Z,483.75
2019-05-19T10:13:32.287Z,466.88
2019-05-19T10:14:32.248Z,455.62
2019-05-19T10:15:32.271Z,450.00
2019-05-19T10:16:32.244Z,444.38
2019-05-19T10:17:32.272Z,450.00
2019-05-19T10:18:32.204Z,450.00
2019-05-19T10:19:32.194Z,433.12
2019-05-19T10:20:32.175Z,433.12
2019-05-19T10:21:32.264Z,427.50
2019-05-19T10:22:32.167Z,427.50
2019-05-19T10:23:32.144Z,438.75
2019-05-19T10:24:32.280Z,450.00
2019-05-19T10:25:32.122Z,466.88
2019-05-19T10:26:32.117Z,478.12
2019-05-19T10:27:32.164Z,500.62
2019-05-19T10:28:32.084Z,517.50
2019-05-19T10:29:32.076Z,511.88
2019-05-19T10:30:32.064Z,517.50
2019-05-19T10:31:32.059Z,540.00
2019-05-19T10:32:32.044Z,534.38
2019-05-19T10:33:32.047Z,540.00
2019-05-19T10:34:32.039Z,540.00
2019-05-19T10:35:32.010Z,534.38
2019-05-19T10:36:39.489Z,545.62
2019-05-19T10:37:31.988Z,540.00
2019-05-19T10:38:32.019Z,556.88
2019-05-19T10:39:31.969Z,585.00
2019-05-19T10:40:31.954Z,590.62
2019-05-19T10:41:31.950Z,596.25
2019-05-19T10:42:31.937Z,601.88
2019-05-19T10:43:31.964Z,607.50
2019-05-19T10:44:31.979Z,601.88
2019-05-19T10:45:31.897Z,573.75
2019-05-19T10:46:31.891Z,523.12
2019-05-19T10:47:31.890Z,534.38
2019-05-19T10:48:31.865Z,551.25
2019-05-19T10:49:31.862Z,573.75
2019-05-19T10:50:31.863Z,556.88
2019-05-19T10:51:31.851Z,540.00
2019-05-19T10:52:31.823Z,506.25
2019-05-19T10:53:31.817Z,523.12
2019-05-19T10:54:31.806Z,495.00
2019-05-19T10:55:36.686Z,489.38
2019-05-19T10:56:32.786Z,478.12
2019-05-19T10:57:31.775Z,478.12
2019-05-19T10:58:31.769Z,489.38
2019-05-19T10:59:31.748Z,500.62
2019-05-19T11:00:31.743Z,534.38
2019-05-19T11:01:31.746Z,540.00
2019-05-19T11:02:31.713Z,534.38
2019-05-19T11:03:31.713Z,545.62
2019-05-19T11:04:31.695Z,551.25
2019-05-19T11:05:31.685Z,556.88
2019-05-19T11:06:31.686Z,545.62
2019-05-19T11:07:31.665Z,545.62
2019-05-19T11:08:38.653Z,551.25
2019-05-19T11:09:31.638Z,568.12
2019-05-19T11:10:31.639Z,579.38
2019-05-19T11:11:31.673Z,579.38
2019-05-19T11:12:31.611Z,590.62
2019-05-19T11:13:31.606Z,585.00
2019-05-19T11:14:31.597Z,596.25
2019-05-19T11:15:31.577Z,596.25
2019-05-19T11:16:31.588Z,607.50
2019-05-19T11:17:31.632Z,618.75
2019-05-19T11:18:31.551Z,624.38
2019-05-19T11:19:31.567Z,613.12
2019-05-19T11:20:31.527Z,613.12
2019-05-19T11:21:31.514Z,607.50
2019-05-19T11:22:31.520Z,613.12
2019-05-19T11:23:31.504Z,613.12
2019-05-19T11:24:31.479Z,613.12
2019-05-19T11:25:34.165Z,613.12
2019-05-19T11:26:31.463Z,607.50
2019-05-19T11:27:31.504Z,601.88
2019-05-19T11:28:31.467Z,596.25
2019-05-19T11:29:31.446Z,590.62
2019-05-19T11:30:31.427Z,585.00
2019-05-19T11:31:31.407Z,573.75
2019-05-19T11:32:31.395Z,568.12
2019-05-19T11:33:31.408Z,562.50
2019-05-19T11:34:31.373Z,562.50
2019-05-19T11:35:31.382Z,556.88
2019-05-19T11:36:31.344Z,545.62
2019-05-19T11:37:31.333Z,540.00
2019-05-19T11:38:31.334Z,540.00
2019-05-19T11:39:31.323Z,540.00
2019-05-19T11:40:38.284Z,528.75
2019-05-19T11:41:31.296Z,523.12
2019-05-19T11:42:31.286Z,523.12
2019-05-19T11:43:31.272Z,528.75
2019-05-19T11:44:31.294Z,523.12
2019-05-19T11:45:31.251Z,523.12
2019-05-19T11:46:31.266Z,517.50
2019-05-19T11:47:31.247Z,517.50
2019-05-19T11:48:31.217Z,517.50
2019-05-19T11:49:31.224Z,511.88
2019-05-19T11:50:31.199Z,511.88
2019-05-19T11:51:31.197Z,506.25
2019-05-19T11:52:31.175Z,506.25
2019-05-19T11:53:31.165Z,500.62
2019-05-19T11:54:31.165Z,500.62
2019-05-19T11:55:31.184Z,500.62
2019-05-19T11:56:31.137Z,500.62
2019-05-19T11:57:31.121Z,500.62
2019-05-19T11:58:31.122Z,495.00
2019-05-19T11:59:31.101Z,495.00
2019-05-19T12:00:31.092Z,495.00
2019-05-19T12:01:31.089Z,489.38
2019-05-19T12:02:31.077Z,489.38
2019-05-19T12:03:31.085Z,495.00
2019-05-19T12:04:31.047Z,483.75
2019-05-19T12:05:31.084Z,483.75
2019-05-19T12:06:39.606Z,489.38
2019-05-19T12:07:32.013Z,489.38
2019-05-19T12:08:31.005Z,489.38
2019-05-19T12:09:30.994Z,483.75
2019-05-19T12:10:30.979Z,483.75
2019-05-19T12:11:30.979Z,483.75
2019-05-19T12:12:37.969Z,483.75
2019-05-19T12:13:30.961Z,489.38
2019-05-19T12:14:30.943Z,489.38
2019-05-19T12:15:30.930Z,489.38
2019-05-19T12:16:30.959Z,500.62
2019-05-19T12:17:30.911Z,495.00
2019-05-19T12:18:30.949Z,495.00
2019-05-19T12:19:30.890Z,495.00
2019-05-19T12:20:30.892Z,500.62
2019-05-19T12:21:30.892Z,506.25
2019-05-19T12:22:30.891Z,500.62
2019-05-19T12:23:30.858Z,495.00
2019-05-19T12:24:30.833Z,495.00
2019-05-19T12:25:30.836Z,450.00
2019-05-19T12:26:30.846Z,466.88
2019-05-19T12:27:30.805Z,472.50
2019-05-19T12:28:30.844Z,466.88
2019-05-19T12:29:30.784Z,472.50
2019-05-19T12:30:30.789Z,466.88
2019-05-19T12:31:30.770Z,455.62
2019-05-19T12:32:30.787Z,461.25
2019-05-19T12:33:30.742Z,455.62
2019-05-19T12:34:30.747Z,461.25
2019-05-19T12:35:30.718Z,472.50